createdAt,value
2019-05-02T00:00:57.344Z,6.60
2019-05-02T00:03:28.835Z,6.50
2019-05-02T00:05:57.773Z,6.50
2019-05-02T00:08:29.348Z,6.20
2019-05-02T00:10:58.163Z,6.40
2019-05-02T00:13:27.230Z,6.50
2019-05-02T00:15:57.477Z,6.20
2019-05-02T00:18:26.509Z,6.30
2019-05-02T00:20:57.081Z,6.50
2019-05-02T00:23:27.880Z,6.20
2019-05-02T00:25:56.864Z,6.10
2019-05-02T00:28:25.740Z,6.40
2019-05-02T00:30:54.529Z,6.00
2019-05-02T00:33:23.321Z,6.00
2019-05-02T00:35:52.300Z,5.90
2019-05-02T00:38:21.303Z,6.00
2019-05-02T00:40:50.161Z,6.00
2019-05-02T00:43:18.976Z,5.50
2019-05-02T00:45:47.844Z,5.60
2019-05-02T00:48:25.717Z,5.50
2019-05-02T00:50:54.677Z,5.40
2019-05-02T00:53:23.479Z,5.20
2019-05-02T00:55:52.341Z,5.20
2019-05-02T00:58:21.145Z,5.30
2019-05-02T01:01:11.060Z,5.40
2019-05-02T01:03:41.791Z,5.20
2019-05-02T01:06:14.416Z,5.10
2019-05-02T01:08:42.172Z,5.20
2019-05-02T01:11:11.040Z,5.20
2019-05-02T01:13:39.857Z,5.40
2019-05-02T01:16:08.644Z,5.40
2019-05-02T01:18:41.354Z,5.50
2019-05-02T01:21:08.044Z,5.60
2019-05-02T01:23:36.844Z,5.80
2019-05-02T01:26:07.380Z,5.80
2019-05-02T01:29:04.388Z,6.00
2019-05-02T01:31:39.348Z,6.20
2019-05-02T01:34:31.294Z,6.10
2019-05-02T01:37:05.550Z,6.10
2019-05-02T01:39:37.810Z,5.90
2019-05-02T01:42:05.445Z,6.00
2019-05-02T01:44:36.499Z,6.10
2019-05-02T01:47:05.007Z,6.10
2019-05-02T01:49:33.811Z,6.10
2019-05-02T01:52:02.679Z,6.10
2019-05-02T01:54:31.493Z,6.20
2019-05-02T01:57:04.015Z,6.40
2019-05-02T01:59:33.991Z,6.80
2019-05-02T02:02:01.521Z,6.50
2019-05-02T02:04:30.317Z,6.50
2019-05-02T02:07:05.078Z,6.50
2019-05-02T02:09:33.942Z,6.80
2019-05-02T02:12:05.025Z,7.10
2019-05-02T02:14:33.297Z,6.80
2019-05-02T02:17:02.159Z,6.80
2019-05-02T02:19:51.531Z,6.80
2019-05-02T02:22:45.270Z,6.80
2019-05-02T02:25:46.865Z,6.70
2019-05-02T02:28:15.665Z,6.80
2019-05-02T02:30:44.686Z,6.70
2019-05-02T02:33:13.485Z,6.50
2019-05-02T02:35:49.800Z,6.50
2019-05-02T02:38:12.964Z,6.70
2019-05-02T02:40:41.849Z,6.50
2019-05-02T02:43:32.189Z,6.50
2019-05-02T02:46:05.088Z,6.70
2019-05-02T02:48:40.425Z,7.10
2019-05-02T02:51:05.117Z,6.80
2019-05-02T02:53:34.130Z,7.10
2019-05-02T02:56:04.299Z,6.90
2019-05-02T02:58:44.626Z,7.10
2019-05-02T03:01:04.073Z,6.90
2019-05-02T03:03:35.460Z,6.90
2019-05-02T03:06:05.469Z,6.90
2019-05-02T03:08:45.160Z,7.10
2019-05-02T03:11:04.850Z,7.00
2019-05-02T03:13:52.584Z,6.80
2019-05-02T03:16:17.485Z,6.80
2019-05-02T03:18:46.423Z,6.80
2019-05-02T03:21:20.179Z,6.80
2019-05-02T03:23:45.959Z,6.80
2019-05-02T03:26:17.098Z,6.80
2019-05-02T03:28:52.315Z,6.80
2019-05-02T03:31:29.106Z,6.70
2019-05-02T03:33:54.738Z,6.70
2019-05-02T03:36:28.614Z,7.00
2019-05-02T03:38:48.250Z,6.50
2019-05-02T03:41:20.548Z,6.50
2019-05-02T03:43:47.633Z,6.60
2019-05-02T03:46:20.563Z,6.70
2019-05-02T03:48:47.445Z,6.70
2019-05-02T03:51:21.621Z,6.40
2019-05-02T03:53:46.984Z,6.60
2019-05-02T03:56:15.935Z,6.50
2019-05-02T03:58:48.334Z,6.50
2019-05-02T04:01:16.186Z,6.50
2019-05-02T04:03:45.284Z,6.50
2019-05-02T04:06:20.962Z,6.40
2019-05-02T04:08:45.200Z,6.80
2019-05-02T04:11:24.172Z,6.50
2019-05-02T04:13:54.590Z,6.50
2019-05-02T04:16:29.107Z,6.60
2019-05-02T04:18:58.838Z,6.30
2019-05-02T04:21:27.807Z,6.40
2019-05-02T04:24:06.610Z,6.70
2019-05-02T04:26:28.867Z,6.20
2019-05-02T04:28:58.443Z,6.10
2019-05-02T04:31:31.775Z,6.30
2019-05-02T04:33:58.101Z,6.20
2019-05-02T04:36:26.952Z,6.10
2019-05-02T04:39:05.687Z,6.30
2019-05-02T04:41:34.385Z,6.30
2019-05-02T04:44:02.979Z,6.10
2019-05-02T04:46:31.859Z,6.20
2019-05-02T04:49:00.730Z,6.10
2019-05-02T04:51:32.113Z,6.10
2019-05-02T04:54:00.327Z,6.10
2019-05-02T04:56:29.275Z,6.10
2019-05-02T04:59:01.184Z,6.20
2019-05-02T05:01:33.085Z,6.10
2019-05-02T05:04:02.997Z,6.30
2019-05-02T05:06:29.741Z,6.30
2019-05-02T05:08:58.647Z,5.80
2019-05-02T05:11:27.549Z,6.10
2019-05-02T05:14:02.333Z,6.10
2019-05-02T05:16:31.135Z,5.80
2019-05-02T05:19:00.091Z,5.80
2019-05-02T05:21:29.103Z,5.80
2019-05-02T05:24:18.144Z,6.00
2019-05-02T05:26:50.349Z,5.80
2019-05-02T05:29:23.134Z,5.70
2019-05-02T05:31:49.700Z,5.90
2019-05-02T05:34:22.754Z,5.90
2019-05-02T05:36:49.048Z,6.00
2019-05-02T05:39:17.990Z,5.90
2019-05-02T05:41:50.551Z,5.80
2019-05-02T05:44:18.036Z,5.80
2019-05-02T05:46:52.913Z,6.00
2019-05-02T05:49:21.930Z,6.00
2019-05-02T05:51:54.449Z,6.00
2019-05-02T05:54:21.473Z,5.80
2019-05-02T05:56:50.279Z,5.80
2019-05-02T05:59:22.177Z,6.00
2019-05-02T06:01:51.589Z,5.90
2019-05-02T06:04:24.015Z,5.90
2019-05-02T06:06:54.111Z,6.10
2019-05-02T06:09:21.262Z,6.40
2019-05-02T06:11:50.798Z,6.10
2019-05-02T06:14:19.996Z,6.00
2019-05-02T06:16:51.788Z,6.40
2019-05-02T06:19:20.769Z,6.20
2019-05-02T06:21:49.556Z,6.30
2019-05-02T06:24:18.363Z,6.30
2019-05-02T06:26:49.637Z,6.20
2019-05-02T06:29:18.443Z,6.20
2019-05-02T06:31:48.199Z,6.30
2019-05-02T06:34:17.169Z,6.40
2019-05-02T06:36:45.972Z,6.50
2019-05-02T06:39:14.773Z,6.80
2019-05-02T06:41:43.693Z,6.60
2019-05-02T06:44:12.789Z,6.60
2019-05-02T06:46:41.652Z,6.80
2019-05-02T06:49:10.559Z,6.50
2019-05-02T06:51:42.407Z,6.40
2019-05-02T06:54:11.288Z,6.40
2019-05-02T06:56:43.136Z,6.50
2019-05-02T06:59:13.185Z,6.40
2019-05-02T07:01:41.271Z,6.80
2019-05-02T07:04:10.076Z,6.50
2019-05-02T07:06:56.208Z,6.60
2019-05-02T07:09:09.894Z,6.50
2019-05-02T07:11:40.940Z,6.90
2019-05-02T07:14:13.425Z,7.00
2019-05-02T07:16:49.599Z,6.80
2019-05-02T07:19:29.191Z,6.80
2019-05-02T07:21:59.042Z,6.70
2019-05-02T07:24:30.729Z,6.70
2019-05-02T07:26:58.610Z,6.80
2019-05-02T07:29:27.407Z,6.50
2019-05-02T07:31:56.283Z,6.60
2019-05-02T07:34:25.177Z,6.70
2019-05-02T07:36:54.043Z,6.50
2019-05-02T07:39:23.008Z,6.50
2019-05-02T07:41:51.797Z,6.60
2019-05-02T07:44:20.611Z,6.50
2019-05-02T07:46:51.836Z,6.70
2019-05-02T07:49:20.827Z,6.70
2019-05-02T07:51:52.437Z,6.90
2019-05-02T07:54:24.825Z,6.80
2019-05-02T07:56:53.502Z,7.20
2019-05-02T07:59:23.419Z,7.50
2019-05-02T08:01:52.264Z,6.90
2019-05-02T08:04:21.125Z,7.20
2019-05-02T08:06:49.982Z,7.50
2019-05-02T08:09:19.096Z,7.20
2019-05-02T08:11:48.045Z,7.30
2019-05-02T08:14:16.851Z,7.20
2019-05-02T08:16:45.641Z,7.10
2019-05-02T08:19:14.596Z,7.20
2019-05-02T08:21:43.390Z,7.50
2019-05-02T08:24:12.185Z,6.80
2019-05-02T08:27:07.963Z,7.00
2019-05-02T08:29:37.509Z,7.10
2019-05-02T08:32:06.409Z,7.40
2019-05-02T08:34:35.219Z,7.10
2019-05-02T08:37:04.833Z,7.30
2019-05-02T08:39:35.177Z,7.10
2019-05-02T08:42:04.572Z,7.10
2019-05-02T08:44:33.549Z,7.10
2019-05-02T08:47:02.489Z,7.00
2019-05-02T08:49:31.368Z,7.20
2019-05-02T08:52:00.284Z,7.20
2019-05-02T08:54:32.907Z,7.50
2019-05-02T08:57:00.625Z,7.20
2019-05-02T08:59:35.368Z,7.50
2019-05-02T09:02:04.370Z,7.50
2019-05-02T09:04:33.219Z,7.60
2019-05-02T09:07:02.038Z,7.90
2019-05-02T09:09:31.012Z,7.80
2019-05-02T09:12:11.385Z,7.80
2019-05-02T09:14:32.136Z,7.60
2019-05-02T09:17:08.086Z,7.90
2019-05-02T09:19:34.659Z,8.50
2019-05-02T09:22:02.574Z,8.60
2019-05-02T09:24:32.571Z,9.00
2019-05-02T09:27:02.494Z,8.90
2019-05-02T09:29:32.740Z,8.90
2019-05-02T09:32:02.140Z,8.90
2019-05-02T09:34:31.860Z,9.20
2019-05-02T09:37:02.710Z,9.20
2019-05-02T09:39:36.264Z,9.20
2019-05-02T09:42:02.295Z,8.90
2019-05-02T09:44:33.116Z,8.70
2019-05-02T09:47:02.372Z,8.40
2019-05-02T09:49:32.438Z,8.50
2019-05-02T09:52:03.293Z,8.50
2019-05-02T09:54:32.318Z,8.60
2019-05-02T09:57:02.842Z,8.50
2019-05-02T09:59:35.124Z,8.50
2019-05-02T10:02:06.428Z,8.40
2019-05-02T10:04:35.348Z,8.50
2019-05-02T10:07:04.406Z,8.50
2019-05-02T10:09:33.273Z,8.60
2019-05-02T10:12:02.260Z,8.50
2019-05-02T10:14:33.106Z,8.40
2019-05-02T10:17:05.596Z,8.40
2019-05-02T10:19:32.780Z,8.20
2019-05-02T10:22:01.976Z,8.20
2019-05-02T10:24:32.263Z,8.10
2019-05-02T10:27:04.011Z,8.00
2019-05-02T10:29:32.902Z,8.50
2019-05-02T10:32:02.164Z,8.30
2019-05-02T10:34:32.904Z,8.40
2019-05-02T10:37:03.109Z,8.60
2019-05-02T10:39:36.138Z,8.90
2019-05-02T10:42:02.710Z,9.20
2019-05-02T10:44:32.752Z,9.40
2019-05-02T10:47:02.864Z,9.80
2019-05-02T10:49:42.487Z,9.90
2019-05-02T10:52:12.247Z,9.90
2019-05-02T10:54:42.194Z,9.90
2019-05-02T10:57:12.646Z,9.80
2019-05-02T10:59:42.136Z,10.00
2019-05-02T11:02:38.226Z,10.20
2019-05-02T11:05:11.999Z,10.40
2019-05-02T11:07:42.021Z,10.40
2019-05-02T11:10:12.245Z,10.10
2019-05-02T11:12:47.011Z,10.10
2019-05-02T11:15:34.916Z,10.10
2019-05-02T11:18:04.028Z,10.20
2019-05-02T11:20:33.466Z,9.90
2019-05-02T11:23:02.328Z,9.70
2019-05-02T11:25:31.954Z,9.50
2019-05-02T11:28:05.500Z,9.30
2019-05-02T11:30:32.002Z,9.30
2019-05-02T11:33:03.047Z,9.40
2019-05-02T11:35:31.871Z,9.40
2019-05-02T11:38:02.513Z,9.40
2019-05-02T11:40:32.168Z,9.40
2019-05-02T11:43:02.764Z,9.40
2019-05-02T11:45:32.590Z,9.50
2019-05-02T11:48:08.920Z,9.50
2019-05-02T11:50:35.323Z,9.30
2019-05-02T11:53:02.935Z,9.20
2019-05-02T11:55:32.046Z,9.10
2019-05-02T11:58:07.952Z,9.00
2019-05-02T12:00:32.386Z,9.30
2019-05-02T12:03:22.765Z,9.30
2019-05-02T12:05:52.464Z,9.70
2019-05-02T12:08:22.602Z,10.40
2019-05-02T12:10:52.048Z,10.80
2019-05-02T12:13:22.681Z,11.40
2019-05-02T12:15:52.045Z,11.70
2019-05-02T12:18:27.000Z,12.10
2019-05-02T12:20:56.026Z,12.70
2019-05-02T12:23:24.890Z,13.10
2019-05-02T12:25:54.277Z,13.10
2019-05-02T12:28:23.084Z,13.20
2019-05-02T12:30:52.100Z,13.20
2019-05-02T12:33:22.742Z,13.40
2019-05-02T12:35:52.463Z,13.60
2019-05-02T12:38:23.064Z,13.80
2019-05-02T12:40:52.210Z,13.80
2019-05-02T12:43:22.895Z,13.40
2019-05-02T12:45:52.781Z,13.30
2019-05-02T12:48:22.152Z,13.40
2019-05-02T12:50:52.817Z,13.60
2019-05-02T12:53:22.051Z,13.50
2019-05-02T12:55:52.735Z,13.40
2019-05-02T12:58:22.001Z,13.40
2019-05-02T13:00:52.887Z,13.40
2019-05-02T13:03:43.587Z,13.50
2019-05-02T13:06:12.430Z,13.60
2019-05-02T13:08:52.115Z,13.80
2019-05-02T13:11:46.369Z,13.60
2019-05-02T13:14:19.633Z,13.80
2019-05-02T13:16:47.510Z,14.10
2019-05-02T13:19:17.037Z,14.20
2019-05-02T13:21:58.238Z,14.30
2019-05-02T13:24:32.560Z,14.40
2019-05-02T13:27:06.292Z,14.50
2019-05-02T13:29:32.387Z,14.60
2019-05-02T13:32:14.347Z,14.10
2019-05-02T13:34:48.666Z,13.80
2019-05-02T13:37:19.819Z,13.30
2019-05-02T13:40:20.172Z,13.00
2019-05-02T13:42:49.052Z,12.90
2019-05-02T13:45:26.115Z,12.60
2019-05-02T13:47:55.095Z,12.70
2019-05-02T13:50:23.897Z,13.10
2019-05-02T13:52:57.715Z,13.30
2019-05-02T13:55:28.666Z,13.40
2019-05-02T13:57:57.460Z,13.60
2019-05-02T14:00:33.626Z,13.60
2019-05-02T14:03:02.923Z,13.50
2019-05-02T14:05:31.919Z,13.50
2019-05-02T14:08:22.699Z,13.40
2019-05-02T14:10:55.504Z,13.00
2019-05-02T14:13:24.328Z,12.80
2019-05-02T14:15:53.132Z,12.80
2019-05-02T14:18:28.720Z,12.90
2019-05-02T14:20:52.803Z,12.90
2019-05-02T14:23:22.184Z,12.80
2019-05-02T14:25:52.091Z,12.70
2019-05-02T14:28:22.437Z,13.00
2019-05-02T14:30:52.543Z,13.20
2019-05-02T14:33:23.640Z,13.20
2019-05-02T14:35:52.725Z,13.20
2019-05-02T14:38:22.092Z,13.00
2019-05-02T14:41:00.313Z,13.00
2019-05-02T14:43:48.391Z,13.10
2019-05-02T14:46:18.258Z,12.80
2019-05-02T14:48:47.361Z,12.60
2019-05-02T14:51:21.997Z,12.40
2019-05-02T14:53:57.420Z,12.40
2019-05-02T14:56:37.591Z,12.20
2019-05-02T14:59:04.201Z,12.20
2019-05-02T15:01:33.235Z,12.20
2019-05-02T15:04:06.377Z,12.20
2019-05-02T15:06:33.754Z,12.30
2019-05-02T15:09:12.196Z,12.30
2019-05-02T15:11:58.053Z,12.30
2019-05-02T15:14:28.534Z,12.20
2019-05-02T15:17:16.578Z,12.10
2019-05-02T15:19:45.555Z,11.90
2019-05-02T15:22:14.414Z,12.00
2019-05-02T15:24:43.296Z,12.10
2019-05-02T15:27:17.552Z,12.20
2019-05-02T15:29:43.752Z,12.10
2019-05-02T15:32:26.037Z,12.00
2019-05-02T15:35:07.077Z,11.90
2019-05-02T15:37:36.086Z,11.90
2019-05-02T15:42:36.018Z,11.60
2019-05-02T15:45:05.842Z,11.40
2019-05-02T15:47:36.998Z,11.30
2019-05-02T15:50:05.640Z,11.10
2019-05-02T15:52:36.087Z,11.00
2019-05-02T15:55:06.028Z,10.90
2019-05-02T15:57:46.419Z,10.90
2019-05-02T16:00:23.137Z,10.90
2019-05-02T16:02:51.670Z,10.90
2019-05-02T16:05:22.193Z,10.90
2019-05-02T16:07:52.331Z,10.90
2019-05-02T16:10:21.818Z,10.80
2019-05-02T16:12:52.681Z,10.80
2019-05-02T16:15:26.288Z,10.80
2019-05-02T16:17:52.379Z,10.70
2019-05-02T16:20:33.658Z,10.80
2019-05-02T16:23:02.541Z,10.90
2019-05-02T16:25:37.308Z,11.10
2019-05-02T16:28:06.323Z,11.30
2019-05-02T16:30:37.010Z,11.40
2019-05-02T16:33:08.038Z,11.60
2019-05-02T16:35:36.380Z,11.60
2019-05-02T16:38:08.226Z,11.60
2019-05-02T16:40:43.052Z,11.50
2019-05-02T16:43:12.241Z,11.40
2019-05-02T16:45:41.712Z,11.30
2019-05-02T16:48:12.724Z,11.10
2019-05-02T16:50:42.070Z,11.20
2019-05-02T16:53:22.705Z,11.30
2019-05-02T16:55:58.515Z,11.30
2019-05-02T16:58:25.333Z,11.40
2019-05-02T17:00:54.408Z,11.30
2019-05-02T17:03:26.385Z,11.30
2019-05-02T17:05:54.519Z,11.20
2019-05-02T17:08:39.616Z,11.00
2019-05-02T17:11:16.174Z,11.20
2019-05-02T17:13:44.970Z,10.90
2019-05-02T17:16:17.319Z,10.90
2019-05-02T17:18:48.222Z,10.90
2019-05-02T17:21:18.146Z,10.90
2019-05-02T17:23:52.241Z,10.90
2019-05-02T17:26:20.313Z,10.90
2019-05-02T17:29:02.505Z,10.90
2019-05-02T17:31:37.420Z,10.90
2019-05-02T17:34:06.286Z,10.90
2019-05-02T17:36:35.192Z,10.80
2019-05-02T17:39:08.259Z,10.70
2019-05-02T17:41:41.469Z,10.50
2019-05-02T17:44:07.752Z,10.30
2019-05-02T17:46:36.738Z,10.00
2019-05-02T17:49:07.085Z,9.80
2019-05-02T17:52:05.395Z,9.60
2019-05-02T17:54:28.840Z,9.40
2019-05-02T17:56:59.135Z,9.30
2019-05-02T17:59:33.464Z,9.10
2019-05-02T18:01:58.798Z,9.00
2019-05-02T18:04:32.449Z,8.90
2019-05-02T18:07:01.146Z,8.80
2019-05-02T18:09:31.708Z,8.70
2019-05-02T18:12:01.595Z,8.60
2019-05-02T18:14:30.483Z,8.60
2019-05-02T18:16:59.287Z,8.60
2019-05-02T18:19:28.160Z,8.60
2019-05-02T18:21:58.069Z,8.50
2019-05-02T18:24:27.508Z,8.50
2019-05-02T18:26:56.438Z,8.20
2019-05-02T18:29:25.285Z,8.40
2019-05-02T18:31:54.102Z,8.30
2019-05-02T18:34:25.252Z,8.60
2019-05-02T18:36:57.444Z,8.70
2019-05-02T18:39:24.021Z,8.10
2019-05-02T18:41:55.093Z,8.20
2019-05-02T18:44:23.447Z,8.20
2019-05-02T18:46:52.321Z,8.10
2019-05-02T18:49:21.910Z,8.30
2019-05-02T18:51:53.935Z,8.10
2019-05-02T18:54:22.429Z,8.20
2019-05-02T18:56:55.264Z,8.10
2019-05-02T18:59:26.680Z,8.20
2019-05-02T19:01:56.060Z,8.10
2019-05-02T19:04:25.388Z,8.20
2019-05-02T19:06:53.732Z,8.20
2019-05-02T19:09:28.581Z,8.10
2019-05-02T19:12:04.828Z,8.10
2019-05-02T19:14:26.015Z,8.00
2019-05-02T19:16:58.107Z,8.00
2019-05-02T19:19:27.376Z,8.20
2019-05-02T19:21:55.460Z,8.10
2019-05-02T19:24:27.488Z,8.20
2019-05-02T19:26:56.480Z,8.30
2019-05-02T19:29:31.641Z,7.90
2019-05-02T19:32:00.239Z,8.20
2019-05-02T19:34:29.017Z,7.90
2019-05-02T19:37:03.138Z,8.20
2019-05-02T19:39:29.642Z,7.80
2019-05-02T19:41:58.512Z,7.90
2019-05-02T19:44:29.842Z,7.70
2019-05-02T19:46:57.836Z,7.70
2019-05-02T19:49:26.692Z,7.70
2019-05-02T19:51:56.387Z,7.70
2019-05-02T19:54:26.484Z,7.60
2019-05-02T19:56:55.440Z,7.60
2019-05-02T19:59:26.359Z,7.60
2019-05-02T20:01:56.904Z,7.80
2019-05-02T20:04:25.496Z,7.40
2019-05-02T20:06:54.402Z,7.70
2019-05-02T20:09:23.232Z,7.50
2019-05-02T20:11:52.260Z,7.50
2019-05-02T20:14:21.810Z,7.80
2019-05-02T20:16:53.535Z,7.40
2019-05-02T20:19:25.742Z,7.50
2019-05-02T20:22:22.363Z,7.50
2019-05-02T20:25:00.384Z,7.50
2019-05-02T20:27:28.412Z,7.40
2019-05-02T20:29:57.379Z,7.50
2019-05-02T20:32:26.340Z,7.50
2019-05-02T20:34:55.252Z,7.50
2019-05-02T20:37:24.568Z,7.50
2019-05-02T20:39:53.433Z,7.50
2019-05-02T20:42:22.245Z,7.40
2019-05-02T20:44:52.793Z,7.80
2019-05-02T20:47:25.065Z,7.50
2019-05-02T20:49:54.002Z,7.40
2019-05-02T20:52:22.875Z,7.50
2019-05-02T20:54:52.342Z,7.50
2019-05-02T20:57:21.477Z,7.50
2019-05-02T20:59:52.324Z,7.50
2019-05-02T21:02:20.998Z,7.80
2019-05-02T21:04:51.914Z,7.50
2019-05-02T21:07:49.133Z,7.80
2019-05-02T21:10:33.859Z,7.50
2019-05-02T21:13:05.893Z,7.50
2019-05-02T21:15:34.693Z,7.50
2019-05-02T21:18:03.662Z,7.50
2019-05-02T21:20:32.649Z,7.80
2019-05-02T21:23:02.018Z,7.50
2019-05-02T21:25:32.531Z,7.50
2019-05-02T21:28:02.869Z,7.80
2019-05-02T21:30:32.355Z,7.50
2019-05-02T21:33:03.220Z,7.50
2019-05-02T21:35:32.026Z,7.70
2019-05-02T21:38:01.001Z,7.50
2019-05-02T21:40:29.790Z,7.50
2019-05-02T21:42:58.610Z,7.50
2019-05-02T21:45:27.465Z,7.50
2019-05-02T21:47:56.270Z,7.70
2019-05-02T21:50:37.365Z,7.40
2019-05-02T21:53:24.332Z,7.40
2019-05-02T21:56:03.653Z,7.40
2019-05-02T21:58:32.521Z,7.50
2019-05-02T22:01:09.628Z,7.50
2019-05-02T22:03:39.015Z,7.50
2019-05-02T22:06:07.961Z,7.40
2019-05-02T22:08:36.933Z,7.40
2019-05-02T22:11:05.864Z,7.50
2019-05-02T22:13:34.741Z,7.30
2019-05-02T22:16:03.600Z,7.40
2019-05-02T22:18:32.389Z,7.50
2019-05-02T22:21:01.683Z,7.40
2019-05-02T22:23:33.522Z,7.20
2019-05-02T22:26:02.139Z,7.40
2019-05-02T22:28:32.755Z,7.50
2019-05-02T22:31:03.225Z,7.20
2019-05-02T22:33:32.843Z,7.10
2019-05-02T22:36:02.032Z,7.10
2019-05-02T22:38:54.588Z,6.90
2019-05-02T22:41:23.383Z,7.20
2019-05-02T22:43:52.185Z,6.90
2019-05-02T22:46:38.950Z,6.80
2019-05-02T22:49:07.762Z,6.80
2019-05-02T22:51:36.713Z,6.90
2019-05-02T22:54:05.704Z,6.90
2019-05-02T22:56:34.569Z,7.10
2019-05-02T22:59:03.651Z,6.80
2019-05-02T23:01:32.524Z,6.70
2019-05-02T23:04:01.952Z,6.80
2019-05-02T23:06:30.900Z,6.80
2019-05-02T23:09:01.897Z,6.80
2019-05-02T23:11:30.292Z,6.70
2019-05-02T23:13:59.170Z,6.70
2019-05-02T23:16:28.041Z,6.80
2019-05-02T23:18:56.917Z,6.70
2019-05-02T23:21:25.747Z,6.60
2019-05-02T23:23:54.717Z,6.50
2019-05-02T23:26:54.652Z,6.80
2019-05-02T23:29:23.531Z,6.70
2019-05-02T23:31:52.412Z,6.40
2019-05-02T23:34:23.304Z,6.50
2019-05-02T23:36:52.367Z,6.40
2019-05-02T23:39:21.453Z,6.20
2019-05-02T23:41:50.236Z,6.00
2019-05-02T23:44:19.109Z,5.70
2019-05-02T23:46:47.903Z,5.70
2019-05-02T23:49:16.716Z,5.60
2019-05-02T23:51:45.507Z,5.50
2019-05-02T23:54:14.290Z,5.60
2019-05-02T23:56:43.343Z,5.50
2019-05-02T23:59:12.381Z,5.40
